Time;durP1;ratioP1;P1;durP2;ratioP2;P2;SDS_P1;SDS_P2;PMS_P1;PMS_P2;Temp;Humidity;BMP_temperature;BMP_pressure;BME280_temperature;BME280_humidity;BME280_pressure;Samples;Min_cycle;Max_cycle;Signal;HPM_P1;HPM_P2
2021/08/07 00:00:13;;;;;;;1.77;1.67;;;17.80;99.90;;;;;;5033333;28;20294;-69
2021/08/07 00:02:42;;;;;;;2.08;1.92;;;17.70;99.90;;;;;;5032976;28;20246;-69
2021/08/07 00:05:09;;;;;;;1.50;1.40;;;17.70;99.90;;;;;;5033091;28;20200;-69
2021/08/07 00:07:36;;;;;;;2.30;1.85;;;17.60;99.90;;;;;;5032971;28;20204;-69
2021/08/07 00:10:04;;;;;;;2.75;1.98;;;17.60;99.90;;;;;;5033239;28;20294;-68
2021/08/07 00:12:31;;;;;;;1.70;1.60;;;17.60;99.90;;;;;;5033095;28;20254;-69
2021/08/07 00:14:58;;;;;;;2.30;2.08;;;17.70;99.90;;;;;;5033980;28;20620;-69
2021/08/07 00:17:25;;;;;;;2.70;2.50;;;17.70;99.90;;;;;;5036856;28;20219;-69
2021/08/07 00:19:53;;;;;;;1.75;1.65;;;17.70;99.90;;;;;;5036591;28;20769;-69
2021/08/07 00:22:20;;;;;;;2.83;2.00;;;17.60;99.90;;;;;;5036849;28;20220;-68
2021/08/07 00:24:47;;;;;;;3.47;1.67;;;17.60;99.90;;;;;;5036538;28;20276;-68
2021/08/07 00:27:14;;;;;;;2.22;2.13;;;17.50;99.90;;;;;;5036698;28;20200;-69
2021/08/07 00:29:41;;;;;;;2.60;1.75;;;17.60;99.90;;;;;;5036647;28;20323;-69
2021/08/07 00:32:08;;;;;;;2.15;1.95;;;17.50;99.90;;;;;;5036692;28;20196;-69
2021/08/07 00:34:35;;;;;;;2.03;1.83;;;17.40;99.90;;;;;;5036634;28;20210;-69
2021/08/07 00:37:05;;;;;;;1.98;1.88;;;17.50;99.90;;;;;;5036408;28;20764;-69
2021/08/07 00:39:32;;;;;;;2.22;2.03;;;17.40;99.90;;;;;;5036589;28;20220;-69
2021/08/07 00:41:59;;;;;;;2.70;2.15;;;17.50;99.90;;;;;;5036326;28;20220;-69
2021/08/07 00:44:26;;;;;;;2.22;2.03;;;17.50;99.90;;;;;;5036247;28;20294;-69
2021/08/07 00:46:52;;;;;;;2.92;2.22;;;17.60;99.90;;;;;;5036264;28;20210;-69
2021/08/07 00:49:19;;;;;;;2.40;2.17;;;17.60;99.90;;;;;;5036518;28;20220;-69
2021/08/07 00:51:47;;;;;;;2.28;2.08;;;17.60;99.90;;;;;;5036339;28;20290;-69
2021/08/07 00:54:15;;;;;;;2.00;1.90;;;17.60;99.90;;;;;;5036487;28;20215;-69
2021/08/07 00:56:42;;;;;;;2.60;2.40;;;17.70;99.90;;;;;;5035796;28;20211;-69
2021/08/07 00:59:09;;;;;;;5.68;2.17;;;17.70;99.90;;;;;;5036202;28;20224;-69
2021/08/07 01:01:42;;;;;;;2.35;2.15;;;17.80;99.90;;;;;;5036073;28;20552;-69
2021/08/07 01:04:14;;;;;;;2.53;2.33;;;17.80;99.90;;;;;;5036150;28;20210;-69
2021/08/07 01:06:46;;;;;;;2.13;2.00;;;17.60;99.90;;;;;;5035953;28;20214;-69
2021/08/07 01:09:25;;;;;;;2.15;2.00;;;17.60;99.90;;;;;;5035934;28;20224;-69
2021/08/07 01:11:55;;;;;;;2.17;1.98;;;17.60;99.90;;;;;;5036002;28;20208;-69
2021/08/07 01:14:25;;;;;;;2.25;2.05;;;17.60;99.90;;;;;;5035788;28;20266;-69
2021/08/07 01:16:54;;;;;;;2.15;1.85;;;17.60;99.90;;;;;;5035606;28;20641;-69
2021/08/07 01:19:25;;;;;;;2.33;2.13;;;17.50;99.90;;;;;;5035739;28;20223;-69
2021/08/07 01:21:57;;;;;;;2.70;2.40;;;17.30;99.90;;;;;;5035495;28;20713;-69
2021/08/07 01:24:35;;;;;;;2.45;2.25;;;17.20;99.90;;;;;;5035767;28;20208;-68
2021/08/07 01:27:17;;;;;;;2.40;2.20;;;17.30;99.90;;;;;;5035555;28;20298;-69
2021/08/07 01:29:44;;;;;;;3.38;2.35;;;17.30;99.90;;;;;;5035365;28;20230;-69
2021/08/07 01:32:12;;;;;;;2.33;2.22;;;17.40;99.90;;;;;;5035577;28;20211;-69
2021/08/07 01:34:39;;;;;;;2.92;2.63;;;17.40;99.90;;;;;;5035591;28;20228;-69
2021/08/07 01:37:06;;;;;;;2.92;2.72;;;17.50;99.90;;;;;;5035171;28;20211;-69
2021/08/07 01:39:33;;;;;;;2.60;2.40;;;17.50;99.90;;;;;;5035444;28;20224;-69
2021/08/07 01:42:00;;;;;;;2.72;2.53;;;17.50;99.90;;;;;;5035347;28;20564;-69
2021/08/07 01:44:28;;;;;;;2.30;2.20;;;17.60;99.90;;;;;;5035320;28;20200;-69
2021/08/07 01:46:59;;;;;;;2.40;2.20;;;17.60;99.90;;;;;;5034923;28;20203;-69
2021/08/07 01:49:35;;;;;;;2.60;2.35;;;17.60;99.90;;;;;;5035231;28;20227;-69
2021/08/07 01:52:07;;;;;;;2.40;2.20;;;17.60;99.90;;;;;;5035249;28;20214;-69
2021/08/07 01:54:37;;;;;;;3.13;2.10;;;17.60;99.90;;;;;;5035176;28;20204;-69
2021/08/07 01:57:08;;;;;;;3.75;2.70;;;17.50;99.90;;;;;;5034953;28;20561;-69
2021/08/07 01:59:38;;;;;;;2.45;2.25;;;17.60;99.90;;;;;;5035105;28;20220;-69
2021/08/07 02:02:07;;;;;;;2.78;2.47;;;17.60;99.90;;;;;;5034854;28;20690;-69
2021/08/07 02:04:35;;;;;;;2.55;2.35;;;17.60;99.90;;;;;;5034947;28;20294;-69
2021/08/07 02:07:03;;;;;;;2.47;2.28;;;17.60;99.90;;;;;;5034768;28;20210;-69
2021/08/07 02:09:29;;;;;;;2.53;2.40;;;17.60;99.90;;;;;;5034568;28;20220;-69
2021/08/07 02:11:57;;;;;;;2.00;1.90;;;17.60;99.90;;;;;;5035098;28;20295;-69
2021/08/07 02:14:25;;;;;;;2.97;2.63;;;17.50;99.90;;;;;;5034773;28;20210;-68
2021/08/07 02:16:55;;;;;;;2.70;2.50;;;17.50;99.90;;;;;;5034472;28;20222;-69
2021/08/07 02:19:23;;;;;;;2.70;2.50;;;17.50;99.90;;;;;;5034711;28;20232;-69
2021/08/07 02:21:50;;;;;;;3.45;2.30;;;17.60;99.90;;;;;;5034473;28;20208;-69
2021/08/07 02:24:17;;;;;;;3.78;2.42;;;17.60;99.90;;;;;;5034609;28;20706;-69
2021/08/07 02:26:45;;;;;;;2.90;2.70;;;17.60;99.90;;;;;;5034434;28;20295;-69
2021/08/07 02:29:12;;;;;;;3.45;2.42;;;17.70;99.90;;;;;;5034553;28;20224;-69
2021/08/07 02:31:42;;;;;;;2.78;2.40;;;17.70;99.90;;;;;;5034480;28;20204;-69
2021/08/07 02:34:12;;;;;;;3.40;2.85;;;17.60;99.90;;;;;;5034394;28;20210;-69
2021/08/07 02:36:40;;;;;;;2.58;2.38;;;17.50;99.90;;;;;;5033881;28;20211;-69
2021/08/07 02:39:07;;;;;;;3.72;2.10;;;17.60;99.90;;;;;;5033834;28;20235;-69
2021/08/07 02:41:34;;;;;;;2.75;2.05;;;17.70;99.90;;;;;;5034472;28;20206;-69
2021/08/07 02:44:02;;;;;;;2.45;2.35;;;17.70;99.90;;;;;;5034132;28;20238;-69
2021/08/07 02:46:30;;;;;;;2.47;2.28;;;17.70;99.90;;;;;;5034004;28;20294;-69
2021/08/07 02:48:58;;;;;;;2.55;2.35;;;17.70;99.90;;;;;;5034029;28;20232;-69
2021/08/07 02:51:27;;;;;;;2.40;2.08;;;17.70;99.90;;;;;;5034039;28;20290;-69
2021/08/07 02:53:54;;;;;;;2.70;2.47;;;17.80;99.90;;;;;;5034051;28;20196;-69
2021/08/07 02:56:21;;;;;;;2.45;1.88;;;17.80;99.90;;;;;;5033666;28;20717;-69
2021/08/07 02:58:48;;;;;;;3.35;2.20;;;17.80;99.90;;;;;;5033859;28;20250;-69
2021/08/07 03:01:15;;;;;;;2.38;2.17;;;17.80;99.90;;;;;;5034002;28;20204;-69
2021/08/07 03:03:42;;;;;;;2.25;2.15;;;17.80;99.90;;;;;;5033916;28;20228;-69
2021/08/07 03:06:09;;;;;;;2.97;2.22;;;17.80;99.90;;;;;;5033652;28;20548;-69
2021/08/07 03:08:37;;;;;;;4.20;2.30;;;17.80;99.90;;;;;;5033751;28;20220;-69
2021/08/07 03:11:04;;;;;;;3.85;2.53;;;17.60;99.90;;;;;;5033760;28;20204;-69
2021/08/07 03:13:31;;;;;;;2.60;2.40;;;17.40;99.90;;;;;;5033642;28;20210;-69
2021/08/07 03:15:58;;;;;;;3.08;2.70;;;17.20;99.90;;;;;;5033304;28;20220;-69
2021/08/07 03:18:24;;;;;;;2.28;2.00;;;17.10;99.90;;;;;;5033589;28;20230;-69
2021/08/07 03:20:56;;;;;;;2.50;2.30;;;17.20;99.90;;;;;;5033697;28;20693;-69
2021/08/07 03:23:23;;;;;;;2.15;2.05;;;17.20;99.90;;;;;;5033828;28;20574;-69
2021/08/07 03:25:52;;;;;;;2.88;2.30;;;17.20;99.90;;;;;;5033564;28;20204;-69
2021/08/07 03:28:19;;;;;;;2.53;2.33;;;17.20;99.90;;;;;;5033549;28;20230;-69
2021/08/07 03:30:45;;;;;;;2.28;2.00;;;17.20;99.90;;;;;;5033183;28;20214;-69
2021/08/07 03:33:12;;;;;;;2.80;2.50;;;17.10;99.90;;;;;;5033474;28;20297;-68
2021/08/07 03:35:39;;;;;;;2.67;2.45;;;17.10;99.90;;;;;;5033094;28;20741;-69
2021/08/07 03:38:06;;;;;;;2.47;2.28;;;17.10;99.90;;;;;;5033392;28;20322;-69
2021/08/07 03:40:32;;;;;;;2.20;2.00;;;17.10;99.90;;;;;;5033448;28;20204;-69
2021/08/07 03:43:01;;;;;;;2.45;2.30;;;17.00;99.90;;;;;;5033371;28;20224;-69
2021/08/07 03:45:27;;;;;;;2.40;2.20;;;17.00;99.90;;;;;;5033170;28;20556;-69
2021/08/07 03:47:55;;;;;;;2.67;2.47;;;16.90;99.90;;;;;;5033007;28;20262;-68
2021/08/07 03:50:23;;;;;;;2.55;2.35;;;16.90;99.90;;;;;;5035556;28;20565;-69
2021/08/07 03:52:50;;;;;;;3.17;2.90;;;16.90;99.90;;;;;;5037579;28;20239;-69
2021/08/07 03:55:17;;;;;;;3.88;2.53;;;16.90;99.90;;;;;;5037137;28;20609;-69
2021/08/07 03:57:48;;;;;;;2.42;2.30;;;16.90;99.90;;;;;;5037392;28;20218;-69
2021/08/07 04:00:17;;;;;;;3.40;2.90;;;16.90;99.90;;;;;;5037050;28;20299;-69
2021/08/07 04:02:44;;;;;;;3.58;2.40;;;17.00;99.90;;;;;;5036923;28;20220;-69
2021/08/07 04:05:11;;;;;;;3.22;2.50;;;17.00;99.90;;;;;;5036980;28;20299;-69
2021/08/07 04:07:38;;;;;;;2.90;2.38;;;16.90;99.90;;;;;;5037112;28;20298;-69
2021/08/07 04:10:06;;;;;;;2.20;2.05;;;16.90;99.90;;;;;;5037170;28;20204;-69
2021/08/07 04:12:33;;;;;;;2.75;2.55;;;16.90;99.90;;;;;;5036960;28;20561;-69
2021/08/07 04:14:59;;;;;;;2.25;2.00;;;16.80;99.90;;;;;;5036828;28;20206;-69
2021/08/07 04:17:28;;;;;;;2.60;2.40;;;16.80;99.90;;;;;;5035743;28;20214;-69
2021/08/07 04:19:55;;;;;;;2.55;1.95;;;16.80;99.90;;;;;;5035691;28;20200;-69
2021/08/07 04:22:21;;;;;;;2.08;1.98;;;16.80;99.90;;;;;;5035516;28;20214;-69
2021/08/07 04:24:48;;;;;;;2.35;2.15;;;16.80;99.90;;;;;;5035351;28;20235;-69
2021/08/07 04:27:15;;;;;;;1.90;1.80;;;16.80;99.90;;;;;;5035522;28;20325;-69
2021/08/07 04:29:42;;;;;;;2.10;2.00;;;16.90;99.90;;;;;;5035514;28;20597;-69
2021/08/07 04:32:09;;;;;;;2.03;1.90;;;17.00;99.90;;;;;;5035542;28;20204;-69
2021/08/07 04:34:37;;;;;;;2.03;1.88;;;17.00;99.90;;;;;;5035285;28;20196;-69
2021/08/07 04:37:04;;;;;;;2.30;2.10;;;16.90;99.90;;;;;;5035211;28;20303;-69
2021/08/07 04:39:31;;;;;;;2.20;2.00;;;16.70;99.90;;;;;;5035007;28;20600;-69
2021/08/07 04:41:58;;;;;;;2.50;2.30;;;16.50;99.90;;;;;;5035317;28;20301;-69
2021/08/07 04:44:24;;;;;;;3.95;2.70;;;16.50;99.90;;;;;;5035082;28;20234;-69
2021/08/07 04:46:51;;;;;;;4.45;2.55;;;16.40;99.90;;;;;;5035069;28;20626;-69
2021/08/07 04:49:18;;;;;;;2.35;2.17;;;16.40;99.90;;;;;;5034911;28;20228;-69
2021/08/07 04:51:46;;;;;;;2.60;2.40;;;16.50;99.90;;;;;;5034953;28;20294;-69
2021/08/07 04:54:13;;;;;;;2.13;1.88;;;16.70;99.90;;;;;;5035013;28;20291;-69
2021/08/07 04:56:40;;;;;;;2.78;2.58;;;16.70;99.90;;;;;;5034968;28;20200;-69
2021/08/07 04:59:06;;;;;;;2.65;2.35;;;16.80;99.90;;;;;;5035026;28;20234;-69
2021/08/07 05:01:33;;;;;;;2.38;2.17;;;16.90;99.90;;;;;;5034452;28;20210;-69
2021/08/07 05:04:00;;;;;;;2.88;2.20;;;16.90;99.90;;;;;;5034889;28;20245;-69
2021/08/07 05:06:27;;;;;;;2.80;2.50;;;17.00;99.90;;;;;;5034637;28;20207;-69
2021/08/07 05:08:55;;;;;;;2.63;2.42;;;17.00;99.90;;;;;;5034886;28;20231;-69
2021/08/07 05:11:22;;;;;;;2.30;1.90;;;17.10;99.90;;;;;;5034640;28;20294;-69
2021/08/07 05:13:49;;;;;;;5.95;2.75;;;17.20;99.90;;;;;;5034814;28;20203;-69
2021/08/07 05:16:15;;;;;;;2.33;2.17;;;17.20;99.90;;;;;;4997091;28;1079088;-69
2021/08/07 05:18:42;;;;;;;2.53;2.33;;;17.30;99.90;;;;;;5035640;28;20322;-69
2021/08/07 05:21:09;;;;;;;3.20;2.55;;;17.30;99.90;;;;;;5035488;28;20204;-69
2021/08/07 05:23:36;;;;;;;2.13;2.00;;;17.30;99.90;;;;;;5035689;28;20243;-69
2021/08/07 05:26:04;;;;;;;2.95;2.30;;;17.30;99.90;;;;;;5035320;28;20689;-69
2021/08/07 05:28:31;;;;;;;2.63;2.42;;;17.40;99.90;;;;;;5035486;28;20220;-69
2021/08/07 05:30:57;;;;;;;3.78;2.40;;;17.40;99.90;;;;;;5035362;28;20666;-69
2021/08/07 05:33:24;;;;;;;2.83;2.42;;;17.50;99.90;;;;;;5035567;28;20540;-69
2021/08/07 05:35:51;;;;;;;2.50;2.30;;;17.40;99.90;;;;;;5035160;28;20294;-69
2021/08/07 05:38:18;;;;;;;2.88;2.42;;;17.40;99.90;;;;;;5035470;28;20223;-69
2021/08/07 05:40:45;;;;;;;2.40;2.20;;;17.30;99.90;;;;;;5035659;28;20204;-69
2021/08/07 05:43:13;;;;;;;2.70;2.50;;;17.20;99.90;;;;;;5035353;28;20597;-69
2021/08/07 05:45:40;;;;;;;2.65;2.45;;;17.30;99.90;;;;;;5034993;28;20762;-69
2021/08/07 05:48:07;;;;;;;2.60;2.40;;;17.40;99.90;;;;;;5035139;28;20224;-69
2021/08/07 05:50:34;;;;;;;2.95;2.65;;;17.40;99.90;;;;;;5035258;28;20203;-70
2021/08/07 05:53:02;;;;;;;2.85;2.65;;;17.50;99.90;;;;;;5035213;28;20389;-69
2021/08/07 05:55:29;;;;;;;2.83;2.40;;;17.60;99.90;;;;;;5035180;28;20215;-69
2021/08/07 05:57:58;;;;;;;2.35;2.25;;;17.70;99.90;;;;;;5035019;28;20335;-69
2021/08/07 06:00:26;;;;;;;2.13;2.03;;;17.70;99.90;;;;;;5035152;28;20254;-69
2021/08/07 06:02:53;;;;;;;2.80;2.30;;;17.80;99.90;;;;;;5034918;28;20291;-69
2021/08/07 06:05:20;;;;;;;3.35;2.55;;;17.90;99.90;;;;;;5034563;28;20207;-69
2021/08/07 06:07:50;;;;;;;2.53;2.33;;;17.90;99.90;;;;;;5034619;28;20291;-69
2021/08/07 06:10:17;;;;;;;4.38;2.75;;;18.00;99.90;;;;;;5034909;28;20206;-69
2021/08/07 06:12:43;;;;;;;2.60;2.40;;;18.10;99.90;;;;;;5034064;28;20279;-69
2021/08/07 06:15:11;;;;;;;2.95;2.40;;;18.20;99.90;;;;;;5034488;28;20207;-69
2021/08/07 06:17:40;;;;;;;2.60;2.40;;;18.20;99.90;;;;;;5034355;28;20692;-69
2021/08/07 06:20:08;;;;;;;2.50;2.30;;;18.20;99.90;;;;;;5034759;28;20239;-69
2021/08/07 06:22:35;;;;;;;2.40;2.00;;;18.10;99.90;;;;;;5034664;28;20204;-69
2021/08/07 06:25:02;;;;;;;4.05;2.58;;;18.20;99.90;;;;;;5034287;28;20234;-69
2021/08/07 06:27:29;;;;;;;3.05;2.75;;;18.20;99.90;;;;;;5034612;28;20243;-69
2021/08/07 06:29:56;;;;;;;2.80;2.55;;;18.20;99.90;;;;;;5034272;28;20206;-69
2021/08/07 06:32:23;;;;;;;2.58;2.38;;;18.20;99.90;;;;;;5034237;28;20680;-69
2021/08/07 06:34:51;;;;;;;1.95;1.85;;;18.30;99.90;;;;;;5034255;28;20287;-70
2021/08/07 06:37:18;;;;;;;2.25;2.15;;;18.40;99.90;;;;;;5034192;28;20717;-69
2021/08/07 06:39:44;;;;;;;2.92;2.72;;;18.40;99.90;;;;;;5033990;28;20231;-70
2021/08/07 06:42:11;;;;;;;3.03;2.50;;;18.60;99.90;;;;;;5034416;28;20237;-69
2021/08/07 06:44:38;;;;;;;2.80;2.20;;;18.70;99.90;;;;;;5034055;28;20559;-69
2021/08/07 06:47:05;;;;;;;2.70;2.50;;;18.90;99.90;;;;;;5034039;28;20214;-70
2021/08/07 06:49:32;;;;;;;2.15;2.05;;;19.00;99.90;;;;;;5033823;28;20729;-70
2021/08/07 06:52:00;;;;;;;4.63;2.37;;;19.00;99.90;;;;;;5034094;28;20206;-69
2021/08/07 06:54:27;;;;;;;3.85;2.35;;;19.10;99.90;;;;;;5034036;28;20452;-69
2021/08/07 06:56:54;;;;;;;2.50;2.30;;;19.20;99.90;;;;;;5033837;28;20601;-69
2021/08/07 06:59:21;;;;;;;2.40;2.20;;;19.10;99.90;;;;;;5033635;28;20498;-69
2021/08/07 07:01:49;;;;;;;2.20;2.10;;;19.20;99.90;;;;;;5033948;28;20448;-69
2021/08/07 07:04:16;;;;;;;2.00;1.90;;;19.30;99.90;;;;;;5033854;28;20480;-69
2021/08/07 07:06:43;;;;;;;2.80;2.60;;;19.30;99.90;;;;;;5033701;28;20473;-69
2021/08/07 07:09:11;;;;;;;2.80;2.60;;;19.30;99.90;;;;;;5033624;28;20587;-69
2021/08/07 07:11:38;;;;;;;2.20;2.00;;;19.30;99.90;;;;;;5033828;28;20533;-69
2021/08/07 07:14:06;;;;;;;2.30;2.20;;;19.40;99.90;;;;;;5033757;28;20544;-69
2021/08/07 07:16:32;;;;;;;1.87;1.73;;;19.40;99.90;;;;;;5033447;28;20458;-70
2021/08/07 07:19:00;;;;;;;2.03;1.70;;;19.40;99.90;;;;;;5033708;28;20559;-70
2021/08/07 07:21:27;;;;;;;1.60;1.50;;;19.50;99.90;;;;;;5033705;28;20474;-70
2021/08/07 07:23:54;;;;;;;1.60;1.50;;;19.70;99.90;;;;;;5033484;28;20503;-70
2021/08/07 07:26:22;;;;;;;2.03;1.40;;;19.90;99.90;;;;;;5033272;28;20457;-70
2021/08/07 07:28:48;;;;;;;1.50;1.40;;;20.10;99.90;;;;;;5033614;28;20468;-69
2021/08/07 07:31:15;;;;;;;1.70;1.60;;;20.40;99.90;;;;;;5033382;28;20965;-69
2021/08/07 07:33:42;;;;;;;1.37;1.27;;;20.40;99.90;;;;;;5033434;28;20535;-70
2021/08/07 07:36:09;;;;;;;1.43;1.20;;;20.50;99.90;;;;;;5033164;28;20897;-69
2021/08/07 07:38:36;;;;;;;1.77;1.67;;;20.60;99.90;;;;;;5033491;28;20553;-69
2021/08/07 07:41:03;;;;;;;3.27;1.40;;;20.60;99.90;;;;;;5033512;28;20484;-70
2021/08/07 07:43:31;;;;;;;1.47;1.40;;;20.60;99.90;;;;;;5033550;28;20807;-69
2021/08/07 07:45:58;;;;;;;2.20;1.50;;;20.60;99.90;;;;;;5033363;28;20449;-69
2021/08/07 07:48:25;;;;;;;1.60;1.50;;;20.80;99.90;;;;;;5033263;28;20495;-69
2021/08/07 07:50:52;;;;;;;1.20;1.10;;;20.90;99.90;;;;;;5033425;28;20446;-69
2021/08/07 07:53:19;;;;;;;2.53;1.50;;;21.20;99.90;;;;;;5033327;28;20447;-69
2021/08/07 07:55:46;;;;;;;1.60;1.50;;;21.30;99.90;;;;;;5033151;28;20453;-69
2021/08/07 07:58:13;;;;;;;1.23;1.20;;;21.30;99.90;;;;;;5033274;28;20502;-69
2021/08/07 08:00:41;;;;;;;1.80;1.70;;;21.30;99.90;;;;;;5033339;28;20525;-69
2021/08/07 08:03:08;;;;;;;2.00;1.53;;;21.30;99.90;;;;;;5033459;28;20450;-69
2021/08/07 08:05:35;;;;;;;1.90;1.80;;;21.30;99.90;;;;;;5032908;28;20489;-69
2021/08/07 08:08:02;;;;;;;2.03;1.73;;;21.50;99.90;;;;;;5033873;28;20813;-69
2021/08/07 08:10:29;;;;;;;2.03;1.83;;;21.70;99.90;;;;;;5033010;28;20530;-69
2021/08/07 08:12:56;;;;;;;1.97;1.77;;;21.90;99.90;;;;;;5033206;28;20866;-69
2021/08/07 08:15:23;;;;;;;1.77;1.67;;;21.90;99.90;;;;;;5033067;28;20447;-69
2021/08/07 08:17:51;;;;;;;2.23;2.03;;;22.30;99.90;;;;;;5032946;28;20451;-70
2021/08/07 08:20:18;;;;;;;1.93;1.77;;;22.60;99.90;;;;;;5033085;28;20455;-69
2021/08/07 08:22:45;;;;;;;2.03;1.90;;;22.80;99.90;;;;;;5033199;28;20800;-69
2021/08/07 08:25:12;;;;;;;2.23;1.70;;;22.80;99.90;;;;;;5032894;28;20679;-69
2021/08/07 08:27:40;;;;;;;1.87;1.77;;;22.80;99.90;;;;;;5032999;28;20444;-69
2021/08/07 08:30:08;;;;;;;3.90;2.20;;;22.80;99.90;;;;;;5033390;28;20451;-69
2021/08/07 08:32:35;;;;;;;1.80;1.70;;;22.80;99.90;;;;;;5033164;28;20925;-69
2021/08/07 08:35:04;;;;;;;1.83;1.70;;;23.00;99.90;;;;;;5032966;28;20448;-69
2021/08/07 08:37:31;;;;;;;2.00;1.70;;;22.90;99.90;;;;;;5036424;28;20453;-69
2021/08/07 08:39:58;;;;;;;1.73;1.63;;;22.80;99.90;;;;;;5036672;28;20447;-69
2021/08/07 08:42:26;;;;;;;1.70;1.60;;;22.80;99.90;;;;;;5036797;28;20530;-69
2021/08/07 08:44:53;;;;;;;1.67;1.50;;;22.80;99.90;;;;;;5036280;28;20475;-69
2021/08/07 08:47:21;;;;;;;2.10;1.90;;;22.70;99.90;;;;;;5036959;28;20449;-70
2021/08/07 08:49:51;;;;;;;2.20;2.00;;;22.60;99.90;;;;;;5036265;28;20471;-69
2021/08/07 08:52:24;;;;;;;2.30;2.10;;;22.60;99.90;;;;;;5036393;28;20443;-69
2021/08/07 08:54:52;;;;;;;1.80;1.70;;;22.50;99.90;;;;;;5036096;28;20439;-69
2021/08/07 08:57:19;;;;;;;1.90;1.80;;;22.40;99.90;;;;;;5036356;28;20474;-69
2021/08/07 08:59:46;;;;;;;1.73;1.63;;;22.20;99.90;;;;;;5036164;28;20463;-70
2021/08/07 09:02:13;;;;;;;2.30;2.20;;;22.10;99.90;;;;;;5036225;28;20442;-69
2021/08/07 09:04:40;;;;;;;2.20;2.10;;;22.10;99.90;;;;;;5036032;28;20573;-70
2021/08/07 09:07:07;;;;;;;2.23;2.03;;;21.90;99.90;;;;;;5035863;28;20464;-69
2021/08/07 09:09:40;;;;;;;1.80;1.70;;;21.80;99.90;;;;;;5035967;28;20477;-69
2021/08/07 09:12:08;;;;;;;1.60;1.50;;;21.70;99.90;;;;;;5035974;28;20453;-69
2021/08/07 09:14:37;;;;;;;2.23;2.03;;;21.70;99.90;;;;;;5035886;28;20522;-69
2021/08/07 09:17:13;;;;;;;1.93;1.80;;;21.70;99.90;;;;;;5035584;28;20545;-69
2021/08/07 09:19:57;;;;;;;3.03;2.20;;;21.80;99.90;;;;;;5035951;28;20462;-69
2021/08/07 09:22:26;;;;;;;2.57;1.80;;;21.80;99.90;;;;;;5035827;28;20954;-69
2021/08/07 09:25:11;;;;;;;3.27;2.43;;;21.90;99.90;;;;;;5035755;28;20552;-71
2021/08/07 09:27:40;;;;;;;2.80;1.90;;;22.00;99.90;;;;;;5035631;28;20449;-70
2021/08/07 09:30:26;;;;;;;2.53;2.00;;;22.00;99.90;;;;;;5035727;28;20804;-69
2021/08/07 09:32:54;;;;;;;1.50;1.40;;;22.10;99.90;;;;;;5035561;28;20437;-70
2021/08/07 09:35:23;;;;;;;2.50;2.30;;;22.10;99.90;;;;;;5035239;28;20434;-69
2021/08/07 09:38:07;;;;;;;2.30;1.93;;;22.20;99.90;;;;;;5035473;28;20538;-70
2021/08/07 09:40:47;;;;;;;1.70;1.60;;;22.30;99.90;;;;;;5035584;28;20426;-70
2021/08/07 09:43:17;;;;;;;1.43;1.33;;;22.20;99.90;;;;;;5035557;28;20447;-70
2021/08/07 09:45:44;;;;;;;1.93;1.83;;;22.20;99.90;;;;;;5035019;28;20475;-70
2021/08/07 09:48:13;;;;;;;1.70;1.60;;;22.20;99.90;;;;;;5034156;28;20469;-70
2021/08/07 09:50:41;;;;;;;1.73;1.63;;;22.20;99.90;;;;;;5035041;28;20443;-70
2021/08/07 09:53:21;;;;;;;1.90;1.43;;;22.20;99.90;;;;;;5035111;28;20447;-70
2021/08/07 09:56:01;;;;;;;1.70;1.60;;;22.10;99.90;;;;;;5034879;28;20782;-70
2021/08/07 09:58:28;;;;;;;1.70;1.60;;;22.00;99.90;;;;;;5034884;28;20980;-70
2021/08/07 10:00:55;;;;;;;1.87;1.50;;;21.90;99.90;;;;;;5035030;28;20445;-69
2021/08/07 10:03:23;;;;;;;1.70;1.60;;;21.70;99.90;;;;;;5035033;28;20530;-70
2021/08/07 10:05:51;;;;;;;2.00;1.77;;;21.70;99.90;;;;;;5034724;28;20482;-70
2021/08/07 10:08:18;;;;;;;1.70;1.60;;;21.60;99.90;;;;;;5034778;28;20846;-69
2021/08/07 10:10:48;;;;;;;1.87;1.77;;;21.40;99.90;;;;;;5034897;28;20537;-70
2021/08/07 10:13:19;;;;;;;2.37;1.80;;;21.30;99.90;;;;;;5034703;28;20500;-70
2021/08/07 10:15:47;;;;;;;2.20;2.00;;;21.20;99.90;;;;;;5034283;28;20529;-70
2021/08/07 10:18:14;;;;;;;2.20;2.00;;;21.00;99.90;;;;;;5034766;28;20482;-70
2021/08/07 10:20:44;;;;;;;1.90;1.80;;;20.90;99.90;;;;;;5034452;28;20948;-70
2021/08/07 10:23:13;;;;;;;2.70;1.80;;;20.70;99.90;;;;;;5034605;28;20453;-70
2021/08/07 10:25:44;;;;;;;2.23;2.00;;;20.50;99.90;;;;;;5034442;28;20930;-69
2021/08/07 10:28:13;;;;;;;3.47;2.10;;;20.10;99.90;;;;;;5034481;28;20474;-69
2021/08/07 10:30:44;;;;;;;2.60;2.40;;;19.90;99.90;;;;;;5034643;28;20481;-69
2021/08/07 10:33:12;;;;;;;2.50;2.30;;;19.80;99.90;;;;;;5034325;28;20444;-69
2021/08/07 10:35:39;;;;;;;2.67;2.30;;;19.80;99.90;;;;;;5034020;28;20443;-69
2021/08/07 10:38:06;;;;;;;2.00;1.90;;;19.80;99.90;;;;;;5034343;28;20468;-69
2021/08/07 10:40:33;;;;;;;2.10;1.90;;;19.60;99.90;;;;;;5034094;28;21115;-69
2021/08/07 10:43:00;;;;;;;2.20;2.10;;;19.50;99.90;;;;;;5034117;28;20940;-69
2021/08/07 10:45:27;;;;;;;2.72;2.47;;;19.40;99.90;;;;;;5034010;28;20837;-69
2021/08/07 10:47:55;;;;;;;2.53;2.27;;;19.30;99.90;;;;;;5034015;28;20223;-69
2021/08/07 10:50:30;;;;;;;2.43;2.23;;;19.20;99.90;;;;;;5034360;28;20457;-69
2021/08/07 10:52:58;;;;;;;2.43;2.23;;;19.20;99.90;;;;;;5034464;28;20536;-70
2021/08/07 10:55:53;;;;;;;2.50;2.30;;;19.30;99.90;;;;;;5033587;28;20453;-69
2021/08/07 10:58:34;;;;;;;2.93;2.63;;;19.30;99.90;;;;;;5009838;28;20468;-69
2021/08/07 11:01:29;;;;;;;2.33;2.20;;;19.40;99.90;;;;;;5034181;28;20435;-69
2021/08/07 11:04:19;;;;;;;3.97;2.87;;;19.40;99.90;;;;;;5033877;28;20518;-69
2021/08/07 11:06:55;;;;;;;2.63;2.43;;;19.40;99.90;;;;;;5033678;28;20478;-69
2021/08/07 11:09:26;;;;;;;2.30;2.10;;;19.40;99.90;;;;;;5033801;28;20480;-69
2021/08/07 11:12:28;;;;;;;3.00;2.70;;;19.40;99.90;;;;;;5033826;28;20451;-69
2021/08/07 11:15:12;;;;;;;2.40;2.10;;;19.30;99.90;;;;;;5033639;28;20205;-69
2021/08/07 11:17:51;;;;;;;2.37;2.20;;;19.30;99.90;;;;;;5031979;28;21003;-69
2021/08/07 11:20:39;;;;;;;3.20;2.90;;;19.20;99.90;;;;;;5033445;28;20478;-69
2021/08/07 11:23:09;;;;;;;2.90;2.70;;;19.10;99.90;;;;;;5033600;28;20520;-69
2021/08/07 11:26:00;;;;;;;2.17;2.08;;;19.00;99.90;;;;;;5033212;28;20224;-69
2021/08/07 11:28:28;;;;;;;2.75;2.55;;;19.00;99.90;;;;;;5033980;28;20260;-69
2021/08/07 11:31:28;;;;;;;3.80;3.50;;;18.80;99.90;;;;;;5033480;28;20204;-69
2021/08/07 11:34:23;;;;;;;3.30;3.00;;;18.70;99.90;;;;;;5033487;28;20290;-69
2021/08/07 11:37:21;;;;;;;4.55;3.20;;;18.70;99.90;;;;;;5033677;28;20238;-70
2021/08/07 11:40:09;;;;;;;3.33;3.08;;;18.50;99.90;;;;;;5033234;28;20259;-69
2021/08/07 11:42:39;;;;;;;3.22;2.92;;;18.40;99.90;;;;;;5033409;28;20723;-70
2021/08/07 11:45:06;;;;;;;3.60;3.30;;;18.30;99.90;;;;;;5033240;28;20716;-70
2021/08/07 11:47:42;;;;;;;3.45;3.15;;;18.30;99.90;;;;;;5033303;28;20208;-70
2021/08/07 11:50:09;;;;;;;3.70;3.30;;;18.40;99.90;;;;;;5033500;28;20192;-69
2021/08/07 11:52:38;;;;;;;4.38;3.80;;;18.40;99.90;;;;;;5033345;28;20665;-69
2021/08/07 11:55:07;;;;;;;4.07;3.60;;;18.50;99.90;;;;;;5033150;28;20200;-69
2021/08/07 11:57:34;;;;;;;3.55;3.25;;;18.50;99.90;;;;;;5033076;28;20211;-69
2021/08/07 12:00:20;;;;;;;4.95;3.80;;;18.50;99.90;;;;;;5033384;28;20204;-69
2021/08/07 12:02:59;;;;;;;4.32;3.75;;;18.60;99.90;;;;;;5033047;28;20206;-69
2021/08/07 12:05:26;;;;;;;5.22;4.50;;;18.70;99.90;;;;;;5032686;28;20226;-69
2021/08/07 12:08:06;;;;;;;4.32;3.80;;;18.70;99.90;;;;;;5033121;28;20210;-69
2021/08/07 12:10:35;;;;;;;4.60;4.20;;;18.70;99.90;;;;;;5033719;28;20194;-69
2021/08/07 12:13:02;;;;;;;3.67;3.40;;;18.80;99.90;;;;;;5036993;28;20655;-69
2021/08/07 12:15:29;;;;;;;3.45;3.08;;;18.80;99.90;;;;;;5036863;28;20623;-69
2021/08/07 12:17:59;;;;;;;3.55;2.97;;;18.80;99.90;;;;;;5036898;28;20655;-69
2021/08/07 12:20:27;;;;;;;3.63;2.92;;;18.90;99.90;;;;;;5036979;28;20555;-69
2021/08/07 12:22:59;;;;;;;3.63;3.33;;;19.00;99.90;;;;;;5036925;28;20617;-69
2021/08/07 12:25:29;;;;;;;3.07;2.80;;;19.10;99.90;;;;;;5036549;28;20477;-69
2021/08/07 12:28:07;;;;;;;2.73;2.53;;;19.20;99.90;;;;;;5036793;28;20464;-69
2021/08/07 12:30:35;;;;;;;4.23;3.83;;;19.30;99.90;;;;;;5036622;28;20515;-69
2021/08/07 12:33:16;;;;;;;3.47;3.03;;;19.20;99.90;;;;;;5036492;28;20445;-69
2021/08/07 12:35:43;;;;;;;3.00;2.72;;;19.20;99.90;;;;;;5036405;28;20531;-69
2021/08/07 12:38:19;;;;;;;2.93;2.50;;;19.20;99.90;;;;;;5036619;28;20230;-69
2021/08/07 12:40:50;;;;;;;3.20;3.00;;;19.20;99.90;;;;;;5036306;28;20429;-69
2021/08/07 12:43:17;;;;;;;4.37;3.13;;;19.30;99.90;;;;;;5036712;28;20787;-69
2021/08/07 12:45:44;;;;;;;3.30;3.00;;;19.20;99.90;;;;;;5036034;28;20471;-69
2021/08/07 12:48:11;;;;;;;4.20;3.80;;;19.30;99.90;;;;;;5036210;28;20476;-69
2021/08/07 12:50:38;;;;;;;3.43;2.83;;;19.30;99.90;;;;;;5036465;28;20439;-69
2021/08/07 12:53:07;;;;;;;2.80;2.60;;;19.10;99.90;;;;;;5036242;28;20467;-69
2021/08/07 12:55:48;;;;;;;3.40;3.10;;;19.20;99.90;;;;;;5035874;28;20969;-69
2021/08/07 12:58:19;;;;;;;3.00;2.80;;;19.00;99.90;;;;;;5035984;28;20223;-69